Aviation Digital Data Service (ADDS)

Output produced by METARs form (0310 UTC 19 February 2019)
found at http://www.aviationweather.gov/metar/data/
 
RJTT 190300Z 10004KT 9999 -RA FEW030 SCT050 BKN080 09/04 Q1023 NOSIG RMK 1CU030 3SC050 7AC080 A3021 P/FR
RJTT 190230Z 12003KT 9999 -RA FEW030 SCT050 OVC100 09/03 Q1024 NOSIG RMK 1CU030 4SC050 8AS100 A3024
TAF RJTT 182306Z 1900/2006 33004KT 9999 FEW030 
     BECMG 1901/1903 13006KT 
     BECMG 1904/1906 19015KT 
     TEMPO 1909/1915 4000 -RA BR FEW005 BKN008 
     BECMG 1912/1915 34012KT 
     BECMG 2000/2003 10005KT
       
RJAA 190300Z 23005KT 200V260 8000 -RA FEW030 OVC100 11/06 Q1023 NOSIG RMK 1CU030 8AS100 A3021
RJAA 190230Z 21005KT 160V250 8000 -RA FEW030 OVC100 11/05 Q1023 NOSIG RMK 1CU030 8AS100 A3023
TAF AMD RJAA 190156Z 1901/2006 17005KT 9999 FEW020 BKN035 
     BECMG 1908/1910 2000 -RA BR FEW003 BKN004 
     BECMG 1915/1918 01004KT 
     TEMPO 1918/2000 0700 FG 
     BECMG 2000/2003 9999 NSW FEW025
       
RJGG 190300Z 35010KT 5000 -RA BR FEW015 BKN025 07/05 Q1022 TEMPO 4000 -RA BR
RJGG 190230Z 34006KT 6000 -RA FEW015 BKN025 07/05 Q1023 NOSIG
TAF RJGG 182313Z 1900/2006 02008KT 8000 -RA FEW008 BKN012 
     BECMG 1903/1905 4000 -RA BR 
     TEMPO 1905/1912 3000 RA BR FEW005 BKN008 
     BECMG 1912/1915 9999 NSW 
     BECMG 1921/2000 32015KT 
     BECMG 2003/2006 32028KT
       
RJBB 190300Z 03013KT 6000 -RA BR FEW002 SCT025 BKN050 09/08 Q1019 NOSIG
RJBB 190245Z 05010KT 6000 -RA BR FEW002 BKN025 BKN050 09/08 Q1019 RMK 1ST002 5CU025 6SC050 A3011
RJBB 190230Z 07008KT 4500 R06R/P2000N R06L/P2000N -RA BR FEW002 SCT030 BKN050 09/08 Q1019 NOSIG
TAF AMD RJBB 190205Z 1902/2006 07010KT 8000 -RA FEW008 SCT020 BKN030 
     TEMPO 1902/1906 4000 RA BR 
     TEMPO 1906/1908 3000 SHRA BR FEW005 BKN008 BKN015 
     BECMG 1908/1910 25020KT
       
RJOO 190300Z 06009KT 4500 -RA BR FEW004 BKN015 BKN030 08/07 Q1019 RMK 1ST004 5CU015 7SC030 A3010
RJOO 190235Z 06011KT 6000 -RA BR FEW004 BKN012 BKN030 08/07 Q1020 RMK 1ST004 5ST012 7SC030 A3012
RJOO 190225Z 06012KT 020V090 4500 -RA BR FEW004 BKN012 BKN030 08/07 Q1019 RMK 1ST004 5ST012 7SC030 A3011
TAF RJOO 182306Z 1900/2006 07007KT 8000 -RA FEW008 SCT015 BKN025 
     TEMPO 1900/1906 4000 RA BR 
     TEMPO 1906/1911 3000 SHRA BR FEW005 BKN008 BKN015 
     BECMG 1910/1912 32006KT
       
RJFF 190300Z 14014KT 090V170 9999 -SHRA FEW010 SCT020 BKN060 15/14 Q1011 WS R16 BECMG FM0400 29006KT
RJFF 190230Z 12016KT 100V160 9999 -SHRA FEW008 SCT020 BKN030 14/13 Q1011 NOSIG RMK 1ST008 4CU020 6CU030 A2988 LGT TO MOD TURB OBS AT 0203Z ON DEP COURSE RWY16 6000FT IN CMB A320
TAF AMD RJFF 182356Z 1900/2006 16017KT 8000 -SHRA FEW005 SCT030 BKN040 
     TEMPO 1900/1903 18017G30KT 4000 SHRA BR 
     BECMG 1903/1905 29005KT
       
ROAH 190300Z 19018KT 9999 VCSH FEW018 SCT040 26/21 Q1018 RMK 1CU018 4SC040 A3008
ROAH 190230Z 19018KT 9999 FEW018 26/22 Q1019 RMK 1CU018 A3009
TAF ROAH 182310Z 1900/2006 19018KT 9999 FEW010 BKN020 
     BECMG 1903/1905 34010KT 
     TEMPO 1903/1906 3000 TSRA SCT008 BKN015 FEW020CB
       
RJCC 190300Z 13008KT 110V170 9999 FEW025 BKN150 BKN/// 03/M05 Q1021
RJCC 190230Z 14009KT 9999 FEW025 BKN140 BKN/// 03/M04 Q1022 RMK 1CU025 5AC140 A3018
TAF RJCC 182305Z 1900/2006 17014KT 9999 FEW020 SCT050 
     BECMG 1912/1915 34010KT 
     TEMPO 1915/1921 2000 -SHSN FEW005 BKN008
       
RJEC 190300Z 16009KT 9999 FEW030 SCT150 BKN170 02/M05 Q1019
TAF RJEC 182309Z 1900/2006 17012KT 9999 FEW020 SCT040 
     BECMG 1915/1918 35005KT
       
RJCK 190300Z 19009KT 9999 FEW030 BKN170 M03/M06 Q1019
TAF RJCK 182310Z 1900/2006 35006KT 9999 FEW030 
     BECMG 1901/1903 21011KT 
     BECMG 1910/1912 02005KT
       
RJSA 190300Z 23007KT 9999 FEW030 BKN110 04/M02 Q1020
TAF RJSA 182310Z 1900/2006 21006KT 9999 FEW020 BKN030 
     TEMPO 1910/1912 3000 -SNRA BR 
     TEMPO 1912/1918 1500 -SNRA BR FEW001 BKN003 BKN005 
     BECMG 1921/2000 02004KT 
     TEMPO 2000/2006 1500 -RA BR FEW001 BKN003 BKN005
       
RJSK 190300Z 14004KT 120V190 CAVOK 05/M01 Q1020
TAF RJSK 182315Z 1900/2006 14005KT 9999 FEW020 BKN040 
     TEMPO 1907/1910 4000 -RA BR FEW005 BKN008 BKN015 
     BECMG 1910/1912 1500 BR FEW001 BKN003 BKN005 
     TEMPO 1912/2000 0700 FG 
     BECMG 2000/2003 27013KT 8000 -SHRA FEW010 BKN020 BKN030 
     TEMPO 2003/2006 27015G25KT 4000 SHRA BR FEW005 BKN008 BKN015
       
RJSN 190300Z 02004KT 9999 FEW060 BKN080 OVC100 07/02 Q1020
TAF RJSN 182314Z 1900/2006 16006KT 9999 FEW030 
     BECMG 1906/1908 4000 -RA BR 
     TEMPO 1909/1912 3000 RA BR 
     TEMPO 1915/1921 2500 -SHRA BR 
     BECMG 2003/2006 27018KT 9999 NSW
       
RJSF 190300Z 24003KT 210V280 9999 FEW025 OVC080 08/01 Q1021
TAF RJSF 182318Z 1900/2006 19007KT 9999 FEW020 BKN030 
     TEMPO 1906/1910 4000 -RA BR FEW005 BKN008 BKN015 
     BECMG 1910/1912 3000 -RA BR FEW005 BKN008 BKN015 
     TEMPO 1912/1918 1500 RA BR FEW003 BKN005 BKN008 
     BECMG 1918/1921 32010KT 9999 NSW FEW010 BKN030 BKN040 
     TEMPO 2003/2006 32015G25KT
       
RJSS 190300Z 11003KT 060V200 9999 FEW020 SCT025 BKN100 08/01 Q1022
TAF RJSS 182311Z 1900/2006 34004KT 9999 FEW010 SCT040 
     TEMPO 1907/1915 3000 -RA BR FEW005 BKN008 BKN015 
     TEMPO 1915/2000 4000 BR 
     BECMG 2003/2006 28013KT
       
RJOK 190300Z 07004KT 030V100 1400 R32/P1800N -SHRA BR FEW003 BKN007 BKN015 13/12 Q1017
RJOK 190219Z 08006KT 040V110 1800 R32/1800D -SHRA BR FEW003 BKN008 BKN010 13/12 Q1019 RMK 1ST003 5ST008 6ST010 A3010
RJOK 190214Z 08006KT 1800 -SHRA BR FEW003 SCT008 BKN010 13/12 Q1019 RMK 1ST003 3ST008 5ST010 A3011
TAF RJOK 182307Z 1900/2006 16007KT 7000 -SHRA FEW008 SCT015 BKN020 
     TEMPO 1900/1907 3000 SHRA BR FEW005 BKN008 BKN015 
     BECMG 1906/1908 36008KT
       
RJOM 190300Z 36007KT 4500 -RA BR FEW003 SCT040 BKN060 10/09 Q1014
RJOM 190215Z 36014KT 4500 -RA BR FEW003 SCT040 BKN060 10/09 Q1015 RMK 1ST003 4SC040 6SC060 A3000
TAF RJOM 182313Z 1900/2006 02009KT 6000 -RA FEW007 SCT010 BKN020 
     TEMPO 1900/1903 4000 RA BR FEW005 BKN008 BKN015 
     BECMG 1902/1904 17017KT 
     TEMPO 1903/1906 4000 SHRA BR 
     BECMG 1907/1909 26010KT
       
RJFO 190300Z 20008KT 8000 -SHRA FEW003 SCT015 BKN030 15/14 Q1013
TAF RJFO 182309Z 1900/2006 15010KT 8000 -SHRA FEW005 SCT010 BKN015 
     TEMPO 1900/1903 1500 SHRA BR FEW003 BKN005 BKN010 
     BECMG 1903/1905 30006KT 
     TEMPO 1903/1907 4000 -SHRA BR FEW004 BKN008 BKN015 
     TEMPO 2000/2006 30015G27KT
       
RJFU 190300Z 22014KT 9999 VCSH FEW007 BKN010 BKN020 18/17 Q1012
RJFU 190248Z 23015KT 9999 -SHRA FEW007 BKN010 BKN020 18/17 Q1012 RMK 1ST007 6CU010 7CU020 A2991
RJFU 190241Z 23018KT 8000 R32/1400VP1800D SHRA FEW007 BKN010 BKN020 18/17 Q1013 RMK 1ST007 6CU010 7CU020 A2992
RJFU 190237Z 23018KT 6000 +SHRA FEW007 BKN010 BKN020 18/17 Q1013 RMK 1ST007 6CU010 7CU020 A2991
TAF RJFU 182307Z 1900/2006 18025KT 8000 -SHRA FEW010 SCT015 BKN020 
     TEMPO 1900/1901 15028G45KT 1500 TSRA BR FEW008 SCT010 BKN015 FEW025CB 
     TEMPO 1901/1903 18028G45KT 4000 -SHRA BR 
     BECMG 1902/1904 28010KT
       
RJFT 190300Z 27008KT 1000 R07/0400V1400N +SHRA BR BCFG FEW001 BKN010 BKN020 15/15 Q1014
RJFT 190241Z 26006KT 210V310 1500 R07/1100VP1800D +SHRA BR BCFG FEW001 BKN020 BKN030 15/15 Q1014 RMK 1ST001 5CU020 7CU030 A2995 FG ALL QUAD
TAF RJFT 182309Z 1900/2006 08005KT 6000 -SHRA FEW005 SCT010 BKN015 
     TEMPO 1900/1902 0800 SHRA FG FEW003 BKN005 BKN010 
     BECMG 1901/1903 21007KT 
     TEMPO 1902/1909 1500 -SHRA BR FEW003 BKN005 BKN010 
     TEMPO 1909/1918 0700 -SHRA FG FEW002 BKN003 BKN008
       
RJFK 190300Z 22008KT 180V270 5000 -SHRA BR BCFG FEW001 SCT005 BKN008 17/17 Q1015 RMK 1ST001 3ST005 5ST008 A2999 FG NW-SE
RJFK 190243Z 20008KT 160V240 4000 -SHRA BR BCFG FEW001 SCT005 BKN010 17/17 Q1016 RMK 1ST001 3ST005 5CU010 A3000 FG NW-SE
RJFK 190225Z 17003KT 110V210 3500 SHRA BR BCFG FEW001 SCT003 BKN005 16/16 Q1016 RMK 1ST001 3ST003 5ST005 A3001 FG NW-SE
RJFK 190217Z VRB02KT 4000 -SHRA BR BCFG FEW001 SCT005 BKN007 15/15 Q1016 RMK 1ST001 3ST005 5ST007 A3002 FG NW-SE
TAF RJFK 182312Z 1900/2006 12004KT 7000 -SHRA FEW005 SCT010 BKN015 
     BECMG 1900/1902 22012KT 
     TEMPO 1900/1903 1500 TSRA BR FEW002 BKN005 BKN010 FEW015CB 
     BECMG 1902/1904 27012KT 
     TEMPO 1903/1906 4000 -SHRA BR FEW005 BKN008 BKN015
       
RJFM 190300Z 27003KT 230V300 4500 -SHRA BR FEW003 SCT007 BKN020 14/14 Q1015
TAF RJFM 182311Z 1900/2006 24013KT 7000 -SHRA FEW005 SCT010 BKN015 
     TEMPO 1900/1902 1500 SHRA BR FEW003 BKN005 BKN010 
     TEMPO 1902/1904 24017G30KT 1500 TSRA BR FEW003 BKN005 BKN010 FEW020CB 
     TEMPO 1904/1906 24017G30KT 3000 SHRA BR FEW005 BKN008 BKN015